createdAt,value
2022-10-19T00:01:04.942Z,12.57
2022-10-19T00:03:33.370Z,10.18
2022-10-19T00:06:00.929Z,11.90
2022-10-19T00:08:27.678Z,12.20
2022-10-19T00:10:54.378Z,11.43
2022-10-19T00:13:21.181Z,11.60
2022-10-19T00:15:47.904Z,11.05
2022-10-19T00:18:14.613Z,11.38
2022-10-19T00:20:41.370Z,11.90
2022-10-19T00:23:08.078Z,10.60
2022-10-19T00:25:34.859Z,11.38
2022-10-19T00:28:01.588Z,10.65
2022-10-19T00:30:28.369Z,10.38
2022-10-19T00:32:55.101Z,10.50
2022-10-19T00:35:22.022Z,10.00
2022-10-19T00:37:48.759Z,9.45
2022-10-19T00:40:15.453Z,8.88
2022-10-19T00:42:42.208Z,8.65
2022-10-19T00:45:17.266Z,8.45
2022-10-19T00:47:45.559Z,9.68
2022-10-19T00:50:14.777Z,9.35
2022-10-19T00:52:42.020Z,9.05
2022-10-19T00:55:09.520Z,9.18
2022-10-19T00:57:36.713Z,8.48
2022-10-19T01:00:06.406Z,9.25
2022-10-19T01:02:33.741Z,8.98
2022-10-19T01:05:01.961Z,9.15
2022-10-19T01:07:29.154Z,9.18
2022-10-19T01:09:56.706Z,9.45
2022-10-19T01:12:48.229Z,8.73
2022-10-19T01:15:28.077Z,10.07
2022-10-19T01:18:03.804Z,10.50
2022-10-19T01:21:15.726Z,10.10
2022-10-19T01:24:03.546Z,10.43
2022-10-19T01:26:51.805Z,10.68
2022-10-19T01:29:25.234Z,10.75
2022-10-19T01:32:04.752Z,11.27
2022-10-19T01:35:02.956Z,11.07
2022-10-19T01:37:40.933Z,11.90
2022-10-19T01:40:12.485Z,11.45
2022-10-19T01:43:06.933Z,11.10
2022-10-19T01:45:39.454Z,11.18
2022-10-19T01:48:22.733Z,11.88
2022-10-19T01:50:57.086Z,11.82
2022-10-19T01:53:25.892Z,11.25
2022-10-19T01:55:54.664Z,12.55
2022-10-19T01:58:30.311Z,12.10
2022-10-19T02:01:02.114Z,12.05
2022-10-19T02:03:29.306Z,12.18
2022-10-19T02:05:58.019Z,11.73
2022-10-19T02:08:34.613Z,12.02
2022-10-19T02:11:02.910Z,12.20
2022-10-19T02:13:31.507Z,11.68
2022-10-19T02:16:02.023Z,11.73
2022-10-19T02:18:32.925Z,12.93
2022-10-19T02:21:02.322Z,11.93
2022-10-19T02:23:29.541Z,13.07
2022-10-19T02:25:56.781Z,12.93
2022-10-19T02:30:52.914Z,13.23
2022-10-19T02:33:19.867Z,12.18
2022-10-19T02:35:47.955Z,13.23
2022-10-19T02:38:19.711Z,12.82
2022-10-19T02:41:04.258Z,12.77
2022-10-19T02:43:34.360Z,13.93
2022-10-19T02:46:06.745Z,12.60
2022-10-19T02:48:35.305Z,12.10
2022-10-19T02:51:02.141Z,11.95
2022-10-19T02:53:29.174Z,13.57
2022-10-19T02:55:55.921Z,12.95
2022-10-19T02:58:22.741Z,13.07
2022-10-19T03:00:49.626Z,12.68
2022-10-19T03:03:16.410Z,13.25
2022-10-19T03:05:43.122Z,13.68
2022-10-19T03:08:09.908Z,14.75
2022-10-19T03:10:36.798Z,14.70
2022-10-19T03:13:04.096Z,12.73
2022-10-19T03:15:31.547Z,12.80
2022-10-19T03:17:58.590Z,13.73
2022-10-19T03:20:25.742Z,14.35
2022-10-19T03:25:20.254Z,12.85
2022-10-19T03:27:47.417Z,16.20
2022-10-19T03:30:14.577Z,15.85
2022-10-19T03:32:41.522Z,14.95
2022-10-19T03:35:11.865Z,15.35
2022-10-19T03:37:39.230Z,15.02
2022-10-19T03:40:06.795Z,13.32
2022-10-19T03:42:34.075Z,14.75
2022-10-19T03:45:00.915Z,14.63
2022-10-19T03:47:27.765Z,15.10
2022-10-19T03:49:54.556Z,14.27
2022-10-19T03:52:21.449Z,14.40
2022-10-19T03:54:51.319Z,14.90
2022-10-19T03:57:18.110Z,13.77
2022-10-19T03:59:44.850Z,13.75
2022-10-19T04:02:11.542Z,13.77
2022-10-19T04:04:38.363Z,13.88
2022-10-19T04:07:05.078Z,12.15
2022-10-19T04:09:31.811Z,12.23
2022-10-19T04:11:58.571Z,12.32
2022-10-19T04:14:32.085Z,11.98
2022-10-19T04:17:01.022Z,11.38
2022-10-19T04:19:27.736Z,9.85
2022-10-19T04:21:54.489Z,10.68
2022-10-19T04:24:21.336Z,10.68
2022-10-19T04:26:50.629Z,8.85
2022-10-19T04:29:19.154Z,8.57
2022-10-19T04:31:48.063Z,9.00
2022-10-19T04:34:14.891Z,7.90
2022-10-19T04:36:41.625Z,8.65
2022-10-19T04:39:09.129Z,9.30
2022-10-19T04:41:37.975Z,8.95
2022-10-19T04:44:08.468Z,8.07
2022-10-19T04:46:35.512Z,7.10
2022-10-19T04:49:04.255Z,7.43
2022-10-19T04:51:31.186Z,8.27
2022-10-19T04:53:59.601Z,8.25
2022-10-19T04:56:27.469Z,6.13
2022-10-19T04:58:56.605Z,7.18
2022-10-19T05:01:24.531Z,6.05
2022-10-19T05:04:02.455Z,6.32
2022-10-19T05:06:30.991Z,5.90
2022-10-19T05:08:57.929Z,5.82
2022-10-19T05:11:25.679Z,6.18
2022-10-19T05:13:52.466Z,5.80
2022-10-19T05:16:21.433Z,5.93
2022-10-19T05:18:49.676Z,5.90
2022-10-19T05:21:17.430Z,5.70
2022-10-19T05:23:44.261Z,6.20
2022-10-19T05:26:17.528Z,6.10
2022-10-19T05:28:48.788Z,5.57
2022-10-19T05:31:20.253Z,6.00
2022-10-19T05:33:47.115Z,6.32
2022-10-19T05:36:16.999Z,6.00
2022-10-19T05:38:45.397Z,5.63
2022-10-19T05:41:12.696Z,5.93
2022-10-19T05:43:40.464Z,6.25
2022-10-19T05:46:09.767Z,5.78
2022-10-19T05:48:37.785Z,6.03
2022-10-19T05:51:06.226Z,6.35
2022-10-19T05:53:34.177Z,5.47
2022-10-19T05:56:01.294Z,5.90
2022-10-19T05:58:28.146Z,6.28
2022-10-19T06:00:57.133Z,6.03
2022-10-19T06:03:25.294Z,6.97
2022-10-19T06:05:53.227Z,7.05
2022-10-19T06:08:21.310Z,6.15
2022-10-19T06:10:49.194Z,6.43
2022-10-19T06:13:18.394Z,6.35
2022-10-19T06:15:49.719Z,6.35
2022-10-19T06:18:16.476Z,6.80
2022-10-19T06:20:43.218Z,6.22
2022-10-19T06:23:10.030Z,6.85
2022-10-19T06:25:37.891Z,5.70
2022-10-19T06:28:05.693Z,6.13
2022-10-19T06:30:32.594Z,6.32
2022-10-19T06:33:00.003Z,7.72
2022-10-19T06:35:26.897Z,6.20
2022-10-19T06:37:56.508Z,6.05
2022-10-19T06:40:24.498Z,7.22
2022-10-19T06:42:51.693Z,6.80
2022-10-19T06:45:18.416Z,6.60
2022-10-19T06:47:45.154Z,7.10
2022-10-19T06:50:12.060Z,5.43
2022-10-19T06:52:40.685Z,5.15
2022-10-19T06:55:08.725Z,5.35
2022-10-19T06:57:35.814Z,5.70
2022-10-19T07:00:05.678Z,5.65
2022-10-19T07:02:33.540Z,5.40
2022-10-19T07:05:04.633Z,4.65
2022-10-19T07:07:34.884Z,5.65
2022-10-19T07:10:02.755Z,5.68
2022-10-19T07:12:30.106Z,4.95
2022-10-19T07:14:58.054Z,4.85
2022-10-19T07:17:25.972Z,4.70
2022-10-19T07:19:53.347Z,5.13
2022-10-19T07:22:24.439Z,5.38
2022-10-19T07:24:54.759Z,5.03
2022-10-19T07:27:21.769Z,5.55
2022-10-19T07:29:48.596Z,4.65
2022-10-19T07:32:15.625Z,5.03
2022-10-19T07:34:42.458Z,5.00
2022-10-19T07:37:09.194Z,4.85
2022-10-19T07:39:36.985Z,5.00
2022-10-19T07:42:05.010Z,5.10
2022-10-19T07:44:31.734Z,5.78
2022-10-19T07:47:00.037Z,5.07
2022-10-19T07:49:27.642Z,4.57
2022-10-19T07:51:56.035Z,4.32
2022-10-19T07:54:24.500Z,5.22
2022-10-19T07:56:52.311Z,5.13
2022-10-19T07:59:19.297Z,5.13
2022-10-19T08:01:47.606Z,4.32
2022-10-19T08:04:55.948Z,5.00
2022-10-19T08:07:04.425Z,5.15
2022-10-19T08:09:52.076Z,4.90
2022-10-19T08:12:18.142Z,6.22
2022-10-19T08:14:44.954Z,5.63
2022-10-19T08:17:16.443Z,5.32
2022-10-19T08:19:44.291Z,4.82
2022-10-19T08:22:11.479Z,5.45
2022-10-19T08:24:38.290Z,5.55
2022-10-19T08:27:05.139Z,5.35
2022-10-19T08:29:32.652Z,5.82
2022-10-19T08:31:59.708Z,5.15
2022-10-19T08:34:27.458Z,5.32
2022-10-19T08:36:54.595Z,5.53
2022-10-19T08:39:21.317Z,5.80
2022-10-19T08:41:59.581Z,5.88
2022-10-19T08:44:57.699Z,5.35
2022-10-19T08:47:33.534Z,5.75
2022-10-19T08:50:00.783Z,4.70
2022-10-19T08:52:35.893Z,5.53
2022-10-19T08:55:13.098Z,5.30
2022-10-19T08:58:08.664Z,5.20
2022-10-19T09:00:43.419Z,5.13
2022-10-19T09:03:58.486Z,4.80
2022-10-19T09:06:24.748Z,5.28
2022-10-19T09:08:53.603Z,5.50
2022-10-19T09:11:27.335Z,5.88
2022-10-19T09:14:30.251Z,5.28
2022-10-19T09:17:06.246Z,6.05
2022-10-19T09:19:35.545Z,5.97
2022-10-19T09:22:07.664Z,6.03
2022-10-19T09:24:44.058Z,6.10
2022-10-19T09:27:21.801Z,5.68
2022-10-19T09:29:55.971Z,6.40
2022-10-19T09:32:28.705Z,6.53
2022-10-19T09:34:58.816Z,6.75
2022-10-19T09:37:26.885Z,7.10
2022-10-19T09:39:55.773Z,7.13
2022-10-19T09:42:36.731Z,6.80
2022-10-19T09:45:31.227Z,7.32
2022-10-19T09:48:05.690Z,6.80
2022-10-19T09:50:43.598Z,7.18
2022-10-19T09:53:20.172Z,7.35
2022-10-19T09:56:23.323Z,6.55
2022-10-19T09:58:52.639Z,6.93
2022-10-19T10:01:43.008Z,7.07
2022-10-19T10:04:18.242Z,5.53
2022-10-19T10:06:49.742Z,6.53
2022-10-19T10:09:18.670Z,5.53
2022-10-19T10:11:48.746Z,6.32
2022-10-19T10:14:21.690Z,6.25
2022-10-19T10:16:48.539Z,6.45
2022-10-19T10:19:17.004Z,6.28
2022-10-19T10:21:48.766Z,5.88
2022-10-19T10:24:16.561Z,5.25
2022-10-19T10:26:46.416Z,6.15
2022-10-19T10:29:20.665Z,6.07
2022-10-19T10:31:58.607Z,6.00
2022-10-19T10:34:45.451Z,6.20
2022-10-19T10:37:26.768Z,7.00
2022-10-19T10:39:58.942Z,6.22
2022-10-19T10:42:35.282Z,4.78
2022-10-19T10:45:03.481Z,4.72
2022-10-19T10:47:31.396Z,5.18
2022-10-19T10:50:02.827Z,5.13
2022-10-19T10:52:31.526Z,5.10
2022-10-19T10:55:09.024Z,4.45
2022-10-19T10:57:41.761Z,4.15
2022-10-19T11:00:14.076Z,4.90
2022-10-19T11:03:14.610Z,4.47
2022-10-19T11:05:45.839Z,5.13
2022-10-19T11:08:12.544Z,6.72
2022-10-19T11:10:49.953Z,6.85
2022-10-19T11:13:33.243Z,6.78
2022-10-19T11:16:17.732Z,6.07
2022-10-19T11:18:53.547Z,6.07
2022-10-19T11:21:32.173Z,7.15
2022-10-19T11:24:12.956Z,7.13
2022-10-19T11:27:00.531Z,7.43
2022-10-19T11:30:03.377Z,7.53
2022-10-19T11:32:46.541Z,7.63
2022-10-19T11:35:41.065Z,7.85
2022-10-19T11:38:22.025Z,7.35
2022-10-19T11:41:22.589Z,7.72
2022-10-19T11:44:22.223Z,8.05
2022-10-19T11:47:29.785Z,8.00
2022-10-19T11:50:27.161Z,7.63
2022-10-19T11:53:28.083Z,6.72
2022-10-19T11:56:17.451Z,6.35
2022-10-19T11:58:56.858Z,6.00
2022-10-19T12:01:51.139Z,6.00
2022-10-19T12:05:04.530Z,7.40
2022-10-19T12:07:56.520Z,7.67
2022-10-19T12:11:04.727Z,7.65
2022-10-19T12:13:56.867Z,7.05
2022-10-19T12:16:42.094Z,7.88
2022-10-19T12:19:26.072Z,8.05
2022-10-19T12:22:00.626Z,7.00
2022-10-19T12:24:29.326Z,7.25
2022-10-19T12:26:57.099Z,7.13
2022-10-19T12:29:40.819Z,5.82
2022-10-19T12:35:04.585Z,5.40
2022-10-19T12:37:39.390Z,5.20
2022-10-19T12:40:12.163Z,5.35
2022-10-19T12:43:00.513Z,5.13
2022-10-19T12:46:01.963Z,5.80
2022-10-19T12:48:28.882Z,5.35
2022-10-19T12:50:57.084Z,4.65
2022-10-19T12:55:59.721Z,6.22
2022-10-19T12:58:34.867Z,5.35
2022-10-19T13:01:04.165Z,5.80
2022-10-19T13:03:38.518Z,4.18
2022-10-19T13:06:19.394Z,4.55
2022-10-19T13:08:58.258Z,5.57
2022-10-19T13:11:25.775Z,4.40
2022-10-19T13:14:00.096Z,4.80
2022-10-19T13:16:29.667Z,4.47
2022-10-19T13:18:59.454Z,4.63
2022-10-19T13:21:44.321Z,4.63
2022-10-19T13:24:26.538Z,4.53
2022-10-19T13:27:02.715Z,4.72
2022-10-19T13:29:38.923Z,4.70
2022-10-19T13:32:30.758Z,4.03
2022-10-19T13:35:25.647Z,4.00
2022-10-19T13:38:18.242Z,4.00
2022-10-19T13:40:47.790Z,3.63
2022-10-19T13:43:26.168Z,3.80
2022-10-19T13:46:15.240Z,4.15
2022-10-19T13:49:05.322Z,4.10
2022-10-19T13:51:48.697Z,4.75
2022-10-19T13:54:42.974Z,4.32
2022-10-19T13:57:23.160Z,4.38
2022-10-19T14:00:15.555Z,4.43
2022-10-19T14:02:48.053Z,3.75
2022-10-19T14:05:33.673Z,4.15
2022-10-19T14:08:18.258Z,3.50
2022-10-19T14:11:00.742Z,3.70
2022-10-19T14:13:28.567Z,4.15
2022-10-19T14:15:58.523Z,3.80
2022-10-19T14:18:33.815Z,4.72
2022-10-19T14:21:06.432Z,4.60
2022-10-19T14:23:35.850Z,4.32
2022-10-19T14:26:12.059Z,4.22
2022-10-19T14:28:40.516Z,4.07
2022-10-19T14:31:10.693Z,3.78
2022-10-19T14:33:45.315Z,4.60
2022-10-19T14:36:18.757Z,4.50
2022-10-19T14:38:47.422Z,3.70
2022-10-19T14:41:28.712Z,4.10
2022-10-19T14:43:57.098Z,3.90
2022-10-19T14:46:34.663Z,4.35
2022-10-19T14:49:04.478Z,4.35
2022-10-19T14:51:45.855Z,5.00
2022-10-19T14:54:18.863Z,4.20
2022-10-19T14:56:55.951Z,4.10
2022-10-19T14:59:33.084Z,4.45
2022-10-19T15:02:03.747Z,4.72
2022-10-19T15:04:34.270Z,4.40
2022-10-19T15:07:04.454Z,4.80
2022-10-19T15:09:47.779Z,4.80
2022-10-19T15:14:45.305Z,4.32
2022-10-19T15:17:27.373Z,4.57
2022-10-19T15:19:56.811Z,5.47
2022-10-19T15:22:33.115Z,4.57
2022-10-19T15:25:08.608Z,4.90
2022-10-19T15:27:41.858Z,4.80
2022-10-19T15:30:17.669Z,4.57
2022-10-19T15:33:04.639Z,4.00
2022-10-19T15:35:37.703Z,4.47
2022-10-19T15:38:10.042Z,4.70
2022-10-19T15:40:39.803Z,4.95
2022-10-19T15:43:29.910Z,5.88
2022-10-19T15:46:05.634Z,5.70
2022-10-19T15:48:41.948Z,5.03
2022-10-19T15:51:23.782Z,4.32
2022-10-19T15:54:04.579Z,5.57
2022-10-19T15:56:35.808Z,5.80
2022-10-19T15:59:11.501Z,4.85
2022-10-19T16:01:38.461Z,5.68
2022-10-19T16:04:05.435Z,4.90
2022-10-19T16:06:33.960Z,4.57
2022-10-19T16:09:01.428Z,5.05
2022-10-19T16:11:29.887Z,5.85
2022-10-19T16:13:56.951Z,5.30
2022-10-19T16:16:30.005Z,6.93
2022-10-19T16:18:57.124Z,10.23
2022-10-19T16:21:28.794Z,7.35
2022-10-19T16:23:55.534Z,5.72
2022-10-19T16:26:22.933Z,5.43
2022-10-19T16:28:49.698Z,5.57
2022-10-19T16:31:17.122Z,5.97
2022-10-19T16:33:44.071Z,6.20
2022-10-19T16:36:11.259Z,10.05
2022-10-19T16:38:38.032Z,6.57
2022-10-19T16:41:07.699Z,5.07
2022-10-19T16:43:35.536Z,6.00
2022-10-19T16:46:03.245Z,5.57
2022-10-19T16:48:30.570Z,5.82
2022-10-19T16:51:12.318Z,6.10
2022-10-19T16:53:39.219Z,6.47
2022-10-19T16:56:08.815Z,6.35
2022-10-19T16:58:39.306Z,6.95
2022-10-19T17:01:11.295Z,6.78
2022-10-19T17:03:38.235Z,6.20
2022-10-19T17:06:06.268Z,7.10
2022-10-19T17:08:37.165Z,6.75
2022-10-19T17:11:23.147Z,6.72
2022-10-19T17:13:51.965Z,8.10
2022-10-19T17:16:20.432Z,8.20
2022-10-19T17:18:47.648Z,6.75
2022-10-19T17:21:17.901Z,7.25
2022-10-19T17:23:45.169Z,6.60
2022-10-19T17:26:12.989Z,6.53
2022-10-19T17:28:40.744Z,6.78
2022-10-19T17:31:11.026Z,6.65
2022-10-19T17:33:38.749Z,7.55
2022-10-19T17:36:14.290Z,6.93
2022-10-19T17:38:41.567Z,6.80
2022-10-19T17:41:17.847Z,7.00
2022-10-19T17:43:47.039Z,6.90
2022-10-19T17:46:17.146Z,6.60
2022-10-19T17:48:45.131Z,7.50
2022-10-19T17:51:15.888Z,9.43
2022-10-19T17:53:43.907Z,10.38
2022-10-19T17:56:13.642Z,8.52
2022-10-19T17:58:40.861Z,8.68
2022-10-19T18:01:08.382Z,8.57
2022-10-19T18:03:36.302Z,7.68
2022-10-19T18:06:11.005Z,7.68
2022-10-19T18:08:41.031Z,7.07
2022-10-19T18:11:16.474Z,7.78
2022-10-19T18:13:43.788Z,7.70
2022-10-19T18:16:14.070Z,7.70
2022-10-19T18:18:43.702Z,8.38
2022-10-19T18:21:13.896Z,10.20
2022-10-19T18:23:41.054Z,10.38
2022-10-19T18:26:11.556Z,10.05
2022-10-19T18:28:38.699Z,9.20
2022-10-19T18:31:34.017Z,9.40
2022-10-19T18:34:03.821Z,8.20
2022-10-19T18:36:32.110Z,8.45
2022-10-19T18:39:03.618Z,11.05
2022-10-19T18:41:30.722Z,10.13
2022-10-19T18:44:01.198Z,8.48
2022-10-19T18:46:28.062Z,8.80
2022-10-19T18:48:55.031Z,8.32
2022-10-19T18:51:23.191Z,9.48
2022-10-19T18:53:50.441Z,9.27
2022-10-19T18:56:19.707Z,8.98
2022-10-19T18:58:47.250Z,8.63
2022-10-19T19:01:19.455Z,8.35
2022-10-19T19:03:49.583Z,8.20
2022-10-19T19:06:25.070Z,9.40
2022-10-19T19:08:55.242Z,7.43
2022-10-19T19:11:25.390Z,9.20
2022-10-19T19:13:58.156Z,9.75
2022-10-19T19:16:27.177Z,8.90
2022-10-19T19:18:54.741Z,8.32
2022-10-19T19:21:26.946Z,8.77
2022-10-19T19:23:55.806Z,9.48
2022-10-19T19:26:26.322Z,10.15
2022-10-19T19:28:53.867Z,10.52
2022-10-19T19:31:20.671Z,10.45
2022-10-19T19:33:48.098Z,10.93
2022-10-19T19:36:16.964Z,9.75
2022-10-19T19:38:44.204Z,9.25
2022-10-19T19:41:13.814Z,10.90
2022-10-19T19:43:41.475Z,11.02
2022-10-19T19:46:14.521Z,11.25
2022-10-19T19:48:43.761Z,10.13
2022-10-19T19:51:16.224Z,9.65
2022-10-19T19:53:43.398Z,9.98
2022-10-19T19:56:12.271Z,8.85
2022-10-19T19:58:39.914Z,8.85
2022-10-19T20:01:25.246Z,8.60
2022-10-19T20:03:52.147Z,9.40
2022-10-19T20:06:22.243Z,8.85
2022-10-19T20:08:52.138Z,9.10
2022-10-19T20:11:19.187Z,9.40
2022-10-19T20:13:46.079Z,10.05
2022-10-19T20:16:18.784Z,10.20
2022-10-19T20:18:47.774Z,11.15
2022-10-19T20:21:15.617Z,9.73
2022-10-19T20:23:46.346Z,9.63
2022-10-19T20:26:17.975Z,10.50
2022-10-19T20:28:44.973Z,10.23
2022-10-19T20:31:13.066Z,10.35
2022-10-19T20:33:41.552Z,10.73
2022-10-19T20:36:09.345Z,9.68
2022-10-19T20:38:38.467Z,10.50
2022-10-19T20:41:08.106Z,10.50
2022-10-19T20:43:37.199Z,9.63
2022-10-19T20:46:11.086Z,10.50
2022-10-19T20:48:37.974Z,10.55
2022-10-19T20:51:29.108Z,10.85
2022-10-19T20:54:00.536Z,9.85
2022-10-19T20:56:29.637Z,10.75
2022-10-19T20:58:58.329Z,10.90
2022-10-19T21:01:25.191Z,10.52
2022-10-19T21:03:54.684Z,11.25
2022-10-19T21:06:23.589Z,10.23
2022-10-19T21:08:50.893Z,10.27
2022-10-19T21:11:23.426Z,9.88
2022-10-19T21:13:57.463Z,9.33
2022-10-19T21:16:27.501Z,9.57
2022-10-19T21:18:54.647Z,8.88
2022-10-19T21:21:24.952Z,9.65
2022-10-19T21:23:55.319Z,9.57
2022-10-19T21:26:24.590Z,9.63
2022-10-19T21:28:54.712Z,9.73
2022-10-19T21:31:23.103Z,10.15
2022-10-19T21:33:50.847Z,8.93
2022-10-19T21:36:18.283Z,9.57
2022-10-19T21:38:45.093Z,9.43
2022-10-19T21:41:14.334Z,9.52
2022-10-19T21:43:41.345Z,9.68
2022-10-19T21:46:11.895Z,9.43
2022-10-19T21:48:39.156Z,10.05
2022-10-19T21:51:24.147Z,9.05
2022-10-19T21:53:51.129Z,9.05
2022-10-19T21:56:17.955Z,8.77
2022-10-19T21:58:46.103Z,8.75
2022-10-19T22:01:13.308Z,9.52
2022-10-19T22:03:40.118Z,9.20
2022-10-19T22:06:07.601Z,9.43
2022-10-19T22:08:34.374Z,9.45
2022-10-19T22:11:09.511Z,8.38
2022-10-19T22:13:37.003Z,9.00
2022-10-19T22:16:04.952Z,9.50
2022-10-19T22:18:31.925Z,9.40
2022-10-19T22:21:10.749Z,9.70
2022-10-19T22:23:38.019Z,9.10
2022-10-19T22:26:26.804Z,10.02
2022-10-19T22:28:56.184Z,9.60
2022-10-19T22:31:23.345Z,9.93
2022-10-19T22:33:50.080Z,9.18
2022-10-19T22:36:17.201Z,10.25
2022-10-19T22:38:44.160Z,9.80
2022-10-19T22:41:10.858Z,10.10
2022-10-19T22:43:37.815Z,10.30
2022-10-19T22:46:04.849Z,10.23
2022-10-19T22:48:31.697Z,9.50
2022-10-19T22:50:58.424Z,8.82
2022-10-19T22:53:25.194Z,8.75
2022-10-19T22:55:51.938Z,9.95
2022-10-19T22:58:19.055Z,10.55
2022-10-19T23:00:45.807Z,9.95
2022-10-19T23:03:12.553Z,11.07
2022-10-19T23:05:39.264Z,9.85
2022-10-19T23:08:06.083Z,9.63
2022-10-19T23:10:32.821Z,9.98
2022-10-19T23:12:59.635Z,10.60
2022-10-19T23:15:26.511Z,10.00
2022-10-19T23:17:53.228Z,10.40
2022-10-19T23:20:19.950Z,10.50
2022-10-19T23:22:46.711Z,10.05
2022-10-19T23:25:13.427Z,10.35
2022-10-19T23:27:40.196Z,9.88
2022-10-19T23:30:07.530Z,10.13
2022-10-19T23:32:34.266Z,9.70
2022-10-19T23:35:00.966Z,9.55
2022-10-19T23:37:27.731Z,9.18
2022-10-19T23:39:54.460Z,9.77
2022-10-19T23:42:21.209Z,9.00
2022-10-19T23:44:47.956Z,9.80
2022-10-19T23:47:14.698Z,10.88
2022-10-19T23:49:41.474Z,10.88
2022-10-19T23:52:08.238Z,9.45
2022-10-19T23:54:35.026Z,9.57
2022-10-19T23:57:01.850Z,10.30
2022-10-19T23:59:28.874Z,8.73
